createdAt,value
2022-12-06T00:02:15.652Z,1.77
2022-12-06T00:04:44.147Z,1.43
2022-12-06T00:07:13.239Z,1.87
2022-12-06T00:09:41.662Z,1.30
2022-12-06T00:12:10.122Z,1.27
2022-12-06T00:14:38.584Z,0.80
2022-12-06T00:17:08.399Z,1.10
2022-12-06T00:19:36.857Z,0.90
2022-12-06T00:22:05.301Z,1.33
2022-12-06T00:24:33.847Z,1.27
2022-12-06T00:27:02.299Z,0.77
2022-12-06T00:29:30.753Z,1.00
2022-12-06T00:31:59.242Z,1.07
2022-12-06T00:34:29.389Z,0.90
2022-12-06T00:36:57.850Z,0.90
2022-12-06T00:39:26.401Z,1.10
2022-12-06T00:41:56.697Z,1.00
2022-12-06T00:44:25.114Z,1.03
2022-12-06T00:46:53.550Z,0.80
2022-12-06T00:49:22.001Z,1.47
2022-12-06T00:51:51.831Z,0.90
2022-12-06T00:54:20.341Z,0.90
2022-12-06T00:56:48.842Z,1.00
2022-12-06T00:59:17.434Z,1.20
2022-12-06T01:01:45.967Z,1.10
2022-12-06T01:04:14.456Z,1.00
2022-12-06T01:06:42.900Z,0.90
2022-12-06T01:09:12.715Z,1.07
2022-12-06T01:11:41.000Z,1.03
2022-12-06T01:14:09.251Z,0.90
2022-12-06T01:16:37.666Z,0.87
2022-12-06T01:19:07.190Z,1.43
2022-12-06T01:21:35.455Z,0.90
2022-12-06T01:24:03.663Z,1.30
2022-12-06T01:26:33.516Z,1.17
2022-12-06T01:29:01.832Z,0.70
2022-12-06T01:31:37.092Z,1.00
2022-12-06T01:34:06.336Z,1.20
2022-12-06T01:36:34.580Z,0.83
2022-12-06T01:39:06.753Z,0.70
2022-12-06T01:41:36.654Z,0.93
2022-12-06T01:44:05.119Z,0.90
2022-12-06T01:46:34.026Z,1.20
2022-12-06T01:49:05.622Z,0.70
2022-12-06T01:51:33.856Z,0.93
2022-12-06T01:54:02.142Z,0.73
2022-12-06T01:56:30.432Z,1.07
2022-12-06T01:59:00.077Z,0.80
2022-12-06T02:01:29.221Z,0.60
2022-12-06T02:03:57.597Z,1.00
2022-12-06T02:06:25.864Z,0.70
2022-12-06T02:08:54.103Z,0.83
2022-12-06T02:11:22.329Z,0.70
2022-12-06T02:13:50.643Z,0.80
2022-12-06T02:16:28.563Z,0.70
2022-12-06T02:18:57.787Z,0.80
2022-12-06T02:21:28.950Z,0.63
2022-12-06T02:24:06.764Z,0.60
2022-12-06T02:26:37.950Z,0.90
2022-12-06T02:29:23.857Z,0.70
2022-12-06T02:31:53.813Z,0.73
2022-12-06T02:34:22.458Z,0.93
2022-12-06T02:36:51.291Z,1.10
2022-12-06T02:39:21.303Z,0.93
2022-12-06T02:41:51.242Z,0.90
2022-12-06T02:44:20.736Z,0.87
2022-12-06T02:46:48.985Z,0.77
2022-12-06T02:49:18.644Z,0.87
2022-12-06T02:51:47.324Z,0.53
2022-12-06T02:54:15.639Z,0.60
2022-12-06T02:56:43.896Z,0.60
2022-12-06T02:59:12.162Z,0.67
2022-12-06T03:01:41.201Z,0.60
2022-12-06T03:04:13.557Z,0.40
2022-12-06T03:06:55.390Z,0.50
2022-12-06T03:09:26.779Z,0.80
2022-12-06T03:11:57.715Z,0.50
2022-12-06T03:14:26.366Z,0.40
2022-12-06T03:16:57.019Z,0.90
2022-12-06T03:19:25.813Z,0.60
2022-12-06T03:21:55.927Z,0.23
2022-12-06T03:24:24.268Z,0.67
2022-12-06T03:26:52.605Z,0.67
2022-12-06T03:29:21.476Z,0.40
2022-12-06T03:31:49.760Z,0.47
2022-12-06T03:34:18.712Z,0.53
2022-12-06T03:36:47.027Z,0.40
2022-12-06T03:39:17.024Z,0.40
2022-12-06T03:41:45.626Z,0.50
2022-12-06T03:44:13.889Z,0.90
2022-12-06T03:46:43.165Z,0.67
2022-12-06T03:49:12.172Z,0.43
2022-12-06T03:51:40.398Z,0.67
2022-12-06T03:54:08.878Z,0.60
2022-12-06T03:56:38.500Z,0.40
2022-12-06T03:59:06.758Z,0.47
2022-12-06T04:01:35.143Z,0.40
2022-12-06T04:04:03.476Z,0.80
2022-12-06T04:06:31.740Z,0.70
2022-12-06T04:09:13.877Z,0.60
2022-12-06T04:11:43.578Z,1.00
2022-12-06T04:14:11.933Z,0.57
2022-12-06T04:16:57.913Z,0.70
2022-12-06T04:19:26.200Z,0.73
2022-12-06T04:22:11.997Z,0.53
2022-12-06T04:24:40.263Z,0.30
2022-12-06T04:27:27.745Z,0.50
2022-12-06T04:30:13.544Z,0.43
2022-12-06T04:32:59.679Z,0.53
2022-12-06T04:35:45.770Z,0.20
2022-12-06T04:38:31.770Z,0.40
2022-12-06T04:41:00.063Z,0.60
2022-12-06T04:43:43.969Z,0.57
2022-12-06T04:46:12.342Z,0.50
2022-12-06T04:48:40.658Z,0.50
2022-12-06T04:51:12.956Z,0.47
2022-12-06T04:53:41.270Z,0.40
2022-12-06T04:56:09.597Z,0.57
2022-12-06T04:58:39.270Z,0.43
2022-12-06T05:01:07.632Z,0.40
2022-12-06T05:03:40.855Z,0.50
2022-12-06T05:06:12.193Z,0.50
2022-12-06T05:08:40.466Z,0.57
2022-12-06T05:11:08.756Z,0.50
2022-12-06T05:13:38.682Z,0.40
2022-12-06T05:16:07.529Z,0.20
2022-12-06T05:18:35.882Z,0.57
2022-12-06T05:21:04.622Z,0.20
2022-12-06T05:23:32.981Z,0.53
2022-12-06T05:26:01.632Z,0.60
2022-12-06T05:28:29.878Z,0.70
2022-12-06T05:30:59.555Z,0.40
2022-12-06T05:33:27.873Z,0.53
2022-12-06T05:35:56.095Z,0.40
2022-12-06T05:38:24.361Z,0.40
2022-12-06T05:40:52.662Z,0.50
2022-12-06T05:43:20.935Z,0.40
2022-12-06T05:45:53.866Z,0.50
2022-12-06T05:48:23.524Z,0.73
2022-12-06T05:50:51.905Z,0.60
2022-12-06T05:53:20.162Z,0.30
2022-12-06T05:55:48.457Z,0.30
2022-12-06T05:58:16.706Z,0.30
2022-12-06T06:00:47.660Z,0.33
2022-12-06T06:03:16.175Z,0.53
2022-12-06T06:05:49.552Z,0.30
2022-12-06T06:08:17.925Z,0.30
2022-12-06T06:10:46.273Z,0.30
2022-12-06T06:13:14.589Z,0.40
2022-12-06T06:15:42.974Z,0.27
2022-12-06T06:18:11.230Z,0.40
2022-12-06T06:20:39.576Z,0.50
2022-12-06T06:23:09.172Z,0.40
2022-12-06T06:25:37.452Z,0.50
2022-12-06T06:28:05.840Z,0.40
2022-12-06T06:30:34.075Z,0.50
2022-12-06T06:33:02.321Z,0.20
2022-12-06T06:35:30.610Z,0.40
2022-12-06T06:37:58.882Z,0.43
2022-12-06T06:40:28.993Z,0.30
2022-12-06T06:42:57.338Z,0.60
2022-12-06T06:45:28.846Z,0.30
2022-12-06T06:47:57.495Z,0.40
2022-12-06T06:50:26.007Z,0.50
2022-12-06T06:52:54.285Z,0.40
2022-12-06T06:55:22.679Z,0.30
2022-12-06T06:57:52.396Z,0.30
2022-12-06T07:00:20.727Z,0.30
2022-12-06T07:02:49.019Z,0.37
2022-12-06T07:05:17.414Z,0.30
2022-12-06T07:07:46.686Z,0.40
2022-12-06T07:10:15.262Z,0.70
2022-12-06T07:12:43.544Z,0.30
2022-12-06T07:15:13.450Z,0.40
2022-12-06T07:17:41.804Z,0.30
2022-12-06T07:20:10.417Z,0.67
2022-12-06T07:22:38.661Z,0.40
2022-12-06T07:25:07.337Z,0.20
2022-12-06T07:27:36.031Z,0.40
2022-12-06T07:30:04.305Z,0.50
2022-12-06T07:32:36.890Z,0.67
2022-12-06T07:35:05.145Z,0.60
2022-12-06T07:37:33.377Z,0.53
2022-12-06T07:40:01.870Z,0.70
2022-12-06T07:42:47.991Z,0.50
2022-12-06T07:45:16.605Z,0.33
2022-12-06T07:47:46.229Z,0.40
2022-12-06T07:50:18.091Z,0.30
2022-12-06T07:52:46.653Z,0.53
2022-12-06T07:55:14.983Z,0.43
2022-12-06T07:57:44.241Z,0.40
2022-12-06T08:00:13.314Z,0.40
2022-12-06T08:02:41.709Z,0.33
2022-12-06T08:05:11.600Z,0.40
2022-12-06T08:07:39.893Z,0.37
2022-12-06T08:10:08.929Z,0.60
2022-12-06T08:12:37.249Z,0.30
2022-12-06T08:15:05.741Z,0.50
2022-12-06T08:17:34.012Z,0.30
2022-12-06T08:20:02.689Z,0.33
2022-12-06T08:22:32.613Z,0.40
2022-12-06T08:25:00.876Z,0.40
2022-12-06T08:27:29.138Z,0.50
2022-12-06T08:29:57.526Z,0.40
2022-12-06T08:32:25.841Z,0.80
2022-12-06T08:34:54.104Z,0.40
2022-12-06T08:37:22.405Z,0.37
2022-12-06T08:39:52.095Z,0.77
2022-12-06T08:42:25.062Z,0.50
2022-12-06T08:44:54.475Z,0.40
2022-12-06T08:47:22.809Z,0.50
2022-12-06T08:49:51.177Z,0.43
2022-12-06T08:52:19.462Z,0.50
2022-12-06T08:54:48.107Z,0.70
2022-12-06T08:57:17.699Z,0.27
2022-12-06T08:59:46.812Z,0.40
2022-12-06T09:02:15.217Z,0.30
2022-12-06T09:04:43.624Z,0.40
2022-12-06T09:07:12.186Z,0.40
2022-12-06T09:09:41.115Z,0.60
2022-12-06T09:12:09.414Z,0.43
2022-12-06T09:14:39.184Z,0.43
2022-12-06T09:17:07.496Z,0.40
2022-12-06T09:19:35.918Z,0.50
2022-12-06T09:22:04.215Z,0.40
2022-12-06T09:24:32.493Z,0.80
2022-12-06T09:27:00.757Z,0.60
2022-12-06T09:29:29.033Z,0.90
2022-12-06T09:31:58.714Z,0.43
2022-12-06T09:34:27.002Z,0.80
2022-12-06T09:36:56.507Z,0.70
2022-12-06T09:39:26.296Z,0.50
2022-12-06T09:42:18.374Z,0.30
2022-12-06T09:44:50.469Z,0.40
2022-12-06T09:47:22.754Z,0.60
2022-12-06T09:49:53.404Z,0.33
2022-12-06T09:52:29.124Z,0.40
2022-12-06T09:55:04.062Z,0.30
2022-12-06T09:57:33.655Z,0.73
2022-12-06T10:00:07.484Z,0.53
2022-12-06T10:02:45.180Z,0.97
2022-12-06T10:05:31.206Z,0.60
2022-12-06T10:08:01.883Z,0.97
2022-12-06T10:10:32.928Z,0.60
2022-12-06T10:13:03.142Z,0.40
2022-12-06T10:15:35.372Z,0.93
2022-12-06T10:18:11.364Z,0.50
2022-12-06T10:20:41.012Z,0.80
2022-12-06T10:23:12.581Z,0.60
2022-12-06T10:25:42.405Z,0.80
2022-12-06T10:28:12.687Z,0.83
2022-12-06T10:30:43.290Z,0.87
2022-12-06T10:33:14.924Z,1.13
2022-12-06T10:35:43.667Z,0.90
2022-12-06T10:38:15.230Z,1.00
2022-12-06T10:40:46.194Z,1.30
2022-12-06T10:43:15.960Z,1.20
2022-12-06T10:46:08.406Z,1.27
2022-12-06T10:48:40.739Z,1.37
2022-12-06T10:51:09.678Z,1.67
2022-12-06T10:53:40.070Z,1.83
2022-12-06T10:56:09.322Z,2.30
2022-12-06T10:58:38.259Z,2.20
2022-12-06T11:01:07.007Z,2.37
2022-12-06T11:03:36.136Z,2.70
2022-12-06T11:06:07.586Z,2.90
2022-12-06T11:08:37.166Z,3.20
2022-12-06T11:11:05.738Z,3.73
2022-12-06T11:13:36.305Z,3.73
2022-12-06T11:16:05.710Z,4.10
2022-12-06T11:18:34.132Z,4.53
2022-12-06T11:21:03.570Z,4.60
2022-12-06T11:23:35.912Z,5.20
2022-12-06T11:26:06.375Z,5.40
2022-12-06T11:28:38.231Z,5.90
2022-12-06T11:31:08.811Z,6.53
2022-12-06T11:33:37.195Z,7.00
2022-12-06T11:36:06.942Z,8.50
2022-12-06T11:38:36.560Z,8.17
2022-12-06T11:41:04.966Z,8.37
2022-12-06T11:43:35.367Z,8.40
2022-12-06T11:46:03.690Z,9.40
2022-12-06T11:48:33.331Z,9.50
2022-12-06T11:51:01.813Z,10.30
2022-12-06T11:53:32.455Z,10.50
2022-12-06T11:56:05.364Z,10.67
2022-12-06T11:58:34.969Z,11.30
2022-12-06T12:01:03.994Z,11.07
2022-12-06T12:03:33.339Z,11.50
2022-12-06T12:06:20.875Z,11.73
2022-12-06T12:08:52.826Z,12.30
2022-12-06T12:11:22.578Z,12.77
2022-12-06T12:13:52.189Z,13.17
2022-12-06T12:16:21.119Z,14.07
2022-12-06T12:18:53.506Z,13.50
2022-12-06T12:21:30.473Z,14.40
2022-12-06T12:23:58.839Z,15.17
2022-12-06T12:26:35.157Z,15.87
2022-12-06T12:29:04.122Z,17.60
2022-12-06T12:31:32.479Z,17.10
2022-12-06T12:34:14.422Z,120.43
2022-12-06T12:36:43.215Z,204.93
2022-12-06T12:39:22.634Z,185.27
2022-12-06T12:41:52.298Z,160.50
2022-12-06T12:44:37.665Z,144.63
2022-12-06T12:47:08.203Z,127.80
2022-12-06T12:49:36.966Z,117.80
2022-12-06T12:52:05.850Z,112.67
2022-12-06T12:54:34.670Z,108.83
2022-12-06T12:57:04.905Z,103.30
2022-12-06T12:59:34.469Z,102.57
2022-12-06T13:02:03.353Z,94.20
2022-12-06T13:04:33.426Z,87.73
2022-12-06T13:07:02.145Z,89.57
2022-12-06T13:09:31.942Z,85.03
2022-12-06T13:12:01.619Z,80.77
2022-12-06T13:14:31.250Z,73.40
2022-12-06T13:16:59.910Z,66.53
2022-12-06T13:19:30.904Z,68.47
2022-12-06T13:21:59.193Z,69.40
2022-12-06T13:24:28.467Z,66.90
2022-12-06T13:26:58.035Z,61.57
2022-12-06T13:29:27.314Z,58.83
2022-12-06T13:31:57.278Z,60.43
2022-12-06T13:34:27.240Z,58.73
2022-12-06T13:36:55.700Z,51.00
2022-12-06T13:39:27.473Z,52.20
2022-12-06T13:42:13.760Z,51.67
2022-12-06T13:44:42.708Z,49.17
2022-12-06T13:47:41.003Z,48.57
2022-12-06T13:50:36.706Z,49.23
2022-12-06T13:53:06.367Z,44.00
2022-12-06T13:55:58.966Z,43.23
2022-12-06T13:58:40.497Z,44.53
2022-12-06T14:01:23.997Z,40.40
2022-12-06T14:03:55.981Z,38.43
2022-12-06T14:06:24.264Z,38.93
2022-12-06T14:08:55.549Z,34.17
2022-12-06T14:11:24.715Z,35.80
2022-12-06T14:14:01.284Z,33.47
2022-12-06T14:16:31.010Z,31.07
2022-12-06T14:18:59.390Z,31.63
2022-12-06T14:21:29.023Z,28.33
2022-12-06T14:23:58.778Z,27.87
2022-12-06T14:26:27.505Z,29.90
2022-12-06T14:28:56.421Z,26.83
2022-12-06T14:31:26.273Z,25.67
2022-12-06T14:33:54.647Z,25.73
2022-12-06T14:36:23.827Z,25.23
2022-12-06T14:38:52.556Z,21.97
2022-12-06T14:41:39.836Z,22.90
2022-12-06T14:44:16.016Z,22.67
2022-12-06T14:46:44.465Z,21.93
2022-12-06T14:49:33.575Z,19.80
2022-12-06T14:52:01.893Z,17.83
2022-12-06T14:54:34.403Z,17.37
2022-12-06T14:57:04.102Z,17.00
2022-12-06T15:00:13.571Z,17.43
2022-12-06T15:02:22.931Z,16.33
2022-12-06T15:04:51.376Z,17.23
2022-12-06T15:07:37.529Z,15.57
2022-12-06T15:10:25.371Z,14.20
2022-12-06T15:12:57.412Z,13.60
2022-12-06T15:15:35.377Z,13.77
2022-12-06T15:18:21.353Z,12.10
2022-12-06T15:20:50.060Z,12.43
2022-12-06T15:23:38.378Z,11.97
2022-12-06T15:26:06.876Z,11.97
2022-12-06T15:28:36.742Z,10.83
2022-12-06T15:31:05.637Z,11.70
2022-12-06T15:33:33.956Z,10.57
2022-12-06T15:36:02.274Z,10.90
2022-12-06T15:38:30.563Z,8.80
2022-12-06T15:40:59.058Z,9.60
2022-12-06T15:43:28.955Z,9.00
2022-12-06T15:46:00.426Z,8.83
2022-12-06T15:48:28.922Z,9.20
2022-12-06T15:50:57.657Z,7.23
2022-12-06T15:53:26.286Z,7.53
2022-12-06T15:55:54.563Z,8.20
2022-12-06T15:58:23.133Z,6.80
2022-12-06T16:00:51.566Z,6.37
2022-12-06T16:03:21.235Z,6.77
2022-12-06T16:05:49.510Z,5.70
2022-12-06T16:08:17.929Z,6.50
2022-12-06T16:11:11.277Z,5.67
2022-12-06T16:13:34.626Z,5.07
2022-12-06T16:16:03.009Z,4.80
2022-12-06T16:18:32.700Z,5.03
2022-12-06T16:21:01.130Z,4.23
2022-12-06T16:24:17.244Z,4.00
2022-12-06T16:26:36.295Z,4.30
2022-12-06T16:29:05.316Z,4.50
2022-12-06T16:31:38.333Z,4.53
2022-12-06T16:34:08.629Z,5.97
2022-12-06T16:36:36.968Z,6.73
2022-12-06T16:39:06.615Z,7.07
2022-12-06T16:41:35.645Z,5.87
2022-12-06T16:44:04.016Z,6.53
2022-12-06T16:46:32.768Z,6.77
2022-12-06T16:49:22.169Z,6.57
2022-12-06T16:51:51.054Z,5.67
2022-12-06T16:54:19.558Z,6.33
2022-12-06T16:56:47.989Z,5.63
2022-12-06T16:59:16.529Z,6.50
2022-12-06T17:01:48.400Z,5.10
2022-12-06T17:04:17.343Z,5.30
2022-12-06T17:06:45.776Z,5.90
2022-12-06T17:09:15.503Z,5.50
2022-12-06T17:12:01.518Z,5.37
2022-12-06T17:14:29.877Z,5.10
2022-12-06T17:17:03.367Z,4.90
2022-12-06T17:19:32.230Z,5.07
2022-12-06T17:22:02.092Z,4.77
2022-12-06T17:24:32.781Z,4.83
2022-12-06T17:27:01.098Z,5.07
2022-12-06T17:29:29.591Z,4.27
2022-12-06T17:31:58.183Z,3.67
2022-12-06T17:34:26.627Z,4.40
2022-12-06T17:36:56.047Z,3.60
2022-12-06T17:39:24.466Z,3.70
2022-12-06T17:42:11.590Z,3.77
2022-12-06T17:44:40.061Z,3.43
2022-12-06T17:47:08.464Z,3.63
2022-12-06T17:49:38.398Z,3.50
2022-12-06T17:52:07.135Z,2.87
2022-12-06T17:54:35.442Z,2.80
2022-12-06T17:57:05.193Z,2.80
2022-12-06T17:59:33.896Z,2.97
2022-12-06T18:02:18.445Z,2.70
2022-12-06T18:04:47.582Z,2.07
2022-12-06T18:07:16.099Z,2.47
2022-12-06T18:09:44.424Z,2.03
2022-12-06T18:12:14.343Z,2.87
2022-12-06T18:14:42.641Z,3.23
2022-12-06T18:17:10.949Z,2.53
2022-12-06T18:19:40.424Z,2.47
2022-12-06T18:22:08.874Z,2.23
2022-12-06T18:24:37.117Z,2.63
2022-12-06T18:27:05.679Z,2.50
2022-12-06T18:29:35.365Z,3.10
2022-12-06T18:32:04.621Z,3.10
2022-12-06T18:34:33.043Z,2.60
2022-12-06T18:37:01.394Z,2.80
2022-12-06T18:39:29.716Z,2.23
2022-12-06T18:41:58.098Z,2.40
2022-12-06T18:44:26.391Z,2.97
2022-12-06T18:46:56.090Z,4.23
2022-12-06T18:49:24.417Z,5.37
2022-12-06T18:51:52.716Z,6.13
2022-12-06T18:54:21.685Z,6.00
2022-12-06T18:56:49.966Z,6.23
2022-12-06T18:59:22.015Z,6.67
2022-12-06T19:01:52.860Z,7.47
2022-12-06T19:04:22.709Z,7.33
2022-12-06T19:06:51.767Z,7.60
2022-12-06T19:09:20.454Z,6.33
2022-12-06T19:11:49.417Z,6.63
2022-12-06T19:14:17.842Z,6.90
2022-12-06T19:16:46.555Z,6.53
2022-12-06T19:19:16.822Z,7.23
2022-12-06T19:21:46.954Z,6.57
2022-12-06T19:24:16.601Z,8.30
2022-12-06T19:26:45.139Z,7.60
2022-12-06T19:29:13.434Z,8.07
2022-12-06T19:31:41.820Z,9.27
2022-12-06T19:34:14.158Z,9.37
2022-12-06T19:36:42.488Z,10.20
2022-12-06T19:39:12.571Z,11.30
2022-12-06T19:41:54.744Z,11.43
2022-12-06T19:44:23.093Z,9.80
2022-12-06T19:46:51.395Z,10.80
2022-12-06T19:49:20.261Z,10.40
2022-12-06T19:51:48.809Z,10.80
2022-12-06T19:54:18.797Z,11.70
2022-12-06T19:56:47.258Z,10.47
2022-12-06T19:59:15.540Z,10.57
2022-12-06T20:01:44.429Z,10.83
2022-12-06T20:04:15.312Z,8.93
2022-12-06T20:06:43.640Z,8.83
2022-12-06T20:09:11.992Z,9.47
2022-12-06T20:11:59.401Z,57.03
2022-12-06T20:14:27.689Z,106.47
2022-12-06T20:16:56.012Z,109.53
2022-12-06T20:19:24.321Z,111.80
2022-12-06T20:21:52.572Z,92.57
2022-12-06T20:24:21.311Z,75.33
2022-12-06T20:26:52.096Z,63.10
2022-12-06T20:29:20.554Z,51.30
2022-12-06T20:31:49.256Z,44.03
2022-12-06T20:34:17.554Z,37.60
2022-12-06T20:36:45.875Z,31.83
2022-12-06T20:39:19.055Z,28.73
2022-12-06T20:41:47.564Z,24.83
2022-12-06T20:44:17.445Z,21.30
2022-12-06T20:46:45.873Z,17.50
2022-12-06T20:49:15.512Z,15.07
2022-12-06T20:51:48.085Z,15.23
2022-12-06T20:54:19.570Z,15.23
2022-12-06T20:56:51.358Z,12.50
2022-12-06T20:59:21.347Z,9.40
2022-12-06T21:01:49.707Z,9.13
2022-12-06T21:04:18.130Z,8.30
2022-12-06T21:06:46.488Z,6.67
2022-12-06T21:09:14.779Z,7.77
2022-12-06T21:11:43.112Z,6.83
2022-12-06T21:14:11.698Z,5.40
2022-12-06T21:16:41.745Z,5.57
2022-12-06T21:19:10.356Z,4.07
2022-12-06T21:21:39.064Z,3.80
2022-12-06T21:24:08.045Z,3.33
2022-12-06T21:26:36.320Z,3.87
2022-12-06T21:29:04.681Z,3.07
2022-12-06T21:31:33.349Z,2.77
2022-12-06T21:34:03.094Z,2.37
2022-12-06T21:36:31.401Z,2.37
2022-12-06T21:38:59.763Z,2.20
2022-12-06T21:41:28.175Z,1.80
2022-12-06T21:43:56.508Z,2.33
2022-12-06T21:46:25.440Z,2.10
2022-12-06T21:48:53.975Z,1.37
2022-12-06T21:51:23.731Z,1.90
2022-12-06T21:53:52.105Z,1.97
2022-12-06T21:56:21.365Z,1.87
2022-12-06T21:58:49.807Z,1.73
2022-12-06T22:01:18.854Z,1.50
2022-12-06T22:03:48.879Z,1.70
2022-12-06T22:06:17.209Z,1.47
2022-12-06T22:08:46.976Z,0.90
2022-12-06T22:11:16.113Z,1.40
2022-12-06T22:13:44.632Z,1.27
2022-12-06T22:16:13.072Z,1.67
2022-12-06T22:18:45.530Z,1.17
2022-12-06T22:21:15.374Z,1.00
2022-12-06T22:23:43.663Z,1.30
2022-12-06T22:26:14.639Z,1.17
2022-12-06T22:28:42.966Z,1.40
2022-12-06T22:31:12.068Z,1.43
2022-12-06T22:33:40.431Z,0.80
2022-12-06T22:36:09.076Z,1.20
2022-12-06T22:38:37.349Z,1.13
2022-12-06T22:41:05.747Z,1.43
2022-12-06T22:43:35.518Z,1.07
2022-12-06T22:46:07.087Z,0.70
2022-12-06T22:48:35.406Z,1.33
2022-12-06T22:51:10.920Z,1.30
2022-12-06T22:53:39.234Z,1.17
2022-12-06T22:56:07.604Z,1.13
2022-12-06T22:58:37.258Z,1.10
2022-12-06T23:01:16.378Z,1.03
2022-12-06T23:03:45.535Z,0.77
2022-12-06T23:06:14.008Z,0.90
2022-12-06T23:08:42.359Z,1.00
2022-12-06T23:11:11.663Z,1.10
2022-12-06T23:13:41.301Z,1.10
2022-12-06T23:16:10.085Z,1.27
2022-12-06T23:18:38.357Z,1.10
2022-12-06T23:21:07.154Z,0.93
2022-12-06T23:23:35.451Z,1.17
2022-12-06T23:26:04.096Z,1.00
2022-12-06T23:28:32.466Z,1.20
2022-12-06T23:31:05.255Z,0.97
2022-12-06T23:33:33.647Z,0.90
2022-12-06T23:36:05.853Z,0.97
2022-12-06T23:38:34.181Z,1.33
2022-12-06T23:41:05.981Z,1.30
2022-12-06T23:43:34.405Z,1.23
2022-12-06T23:46:07.329Z,1.07
2022-12-06T23:48:37.549Z,0.50
2022-12-06T23:51:06.366Z,0.80
2022-12-06T23:53:34.753Z,1.03
2022-12-06T23:56:03.460Z,1.20
2022-12-06T23:58:31.739Z,0.80
